Time;durP1;ratioP1;P1;durP2;ratioP2;P2;SDS_P1;SDS_P2;PMS_P1;PMS_P2;Temp;Humidity;BMP_temperature;BMP_pressure;BME280_temperature;BME280_humidity;BME280_pressure;Samples;Min_cycle;Max_cycle;Signal;HPM_P1;HPM_P2
2023/04/30 00:00:27;;;;;;;56.42;29.77;;;;;;;;;;5074426;28;20534;-60
2023/04/30 00:02:54;;;;;;;61.20;31.42;;;;;;;;;;5074633;28;20236;-60
2023/04/30 00:05:20;;;;;;;59.35;29.58;;;;;;;;;;5074497;28;20380;-60
2023/04/30 00:07:46;;;;;;;61.42;31.58;;;;;;;;;;5074503;28;20030;-59
2023/04/30 00:10:12;;;;;;;59.13;30.52;;;;;;;;;;5073007;28;20096;-61
2023/04/30 00:12:38;;;;;;;67.03;32.13;;;;;;;;;;5074310;28;20024;-60
2023/04/30 00:15:04;;;;;;;58.75;29.92;;;;;;;;;;5074332;28;20024;-60
2023/04/30 00:17:30;;;;;;;68.47;32.85;;;;;;;;;;5074503;28;20024;-60
2023/04/30 00:19:56;;;;;;;64.72;32.72;;;;;;;;;;5074204;28;20036;-60
2023/04/30 00:22:22;;;;;;;62.17;31.67;;;;;;;;;;5074005;28;20055;-61
2023/04/30 00:24:48;;;;;;;66.57;32.60;;;;;;;;;;5074467;28;20028;-60
2023/04/30 00:27:14;;;;;;;69.70;33.33;;;;;;;;;;5074161;28;20025;-61
2023/04/30 00:29:40;;;;;;;72.57;35.97;;;;;;;;;;5073785;28;20067;-62
2023/04/30 00:32:06;;;;;;;75.00;35.30;;;;;;;;;;5074014;28;20043;-59
2023/04/30 00:34:32;;;;;;;70.75;34.17;;;;;;;;;;5073965;28;20020;-61
2023/04/30 00:36:58;;;;;;;66.30;32.67;;;;;;;;;;5073688;28;20036;-59
2023/04/30 00:39:24;;;;;;;63.50;31.80;;;;;;;;;;5073808;28;20430;-60
2023/04/30 00:41:50;;;;;;;65.63;30.95;;;;;;;;;;5074120;28;20017;-61
2023/04/30 00:44:16;;;;;;;68.43;31.90;;;;;;;;;;5073800;28;20062;-61
2023/04/30 00:46:42;;;;;;;68.05;31.73;;;;;;;;;;5073725;28;20379;-61
2023/04/30 00:49:08;;;;;;;68.20;32.47;;;;;;;;;;5073744;28;20024;-60
2023/04/30 00:51:35;;;;;;;76.10;34.15;;;;;;;;;;5073077;28;20100;-60
2023/04/30 00:54:04;;;;;;;67.22;33.13;;;;;;;;;;5073655;28;20013;-60
2023/04/30 00:56:31;;;;;;;67.90;34.00;;;;;;;;;;5073392;28;20034;-60
2023/04/30 00:58:57;;;;;;;69.90;33.25;;;;;;;;;;5073426;28;20032;-60
2023/04/30 01:01:29;;;;;;;81.07;33.13;;;;;;;;;;5073762;28;20419;-61
2023/04/30 01:03:55;;;;;;;;;;;;;;;;;;5073837;28;20025;-61
2023/04/30 01:06:21;;;;;;;68.57;31.90;;;;;;;;;;5073526;28;20366;-60
2023/04/30 01:08:48;;;;;;;69.78;32.40;;;;;;;;;;5073307;28;20028;-60
2023/04/30 01:11:20;;;;;;;76.72;32.72;;;;;;;;;;5073365;28;20071;-60
2023/04/30 01:14:03;;;;;;;76.35;33.65;;;;;;;;;;5073479;28;20020;-60
2023/04/30 01:16:32;;;;;;;72.47;31.60;;;;;;;;;;5073067;28;20020;-61
2023/04/30 01:19:05;;;;;;;71.93;33.33;;;;;;;;;;5073350;28;20036;-60
2023/04/30 01:21:32;;;;;;;74.13;34.08;;;;;;;;;;5073072;28;20457;-61
2023/04/30 01:24:13;;;;;;;75.13;32.83;;;;;;;;;;5072940;28;20026;-60
2023/04/30 01:26:57;;;;;;;68.80;32.10;;;;;;;;;;5073075;28;20468;-60
2023/04/30 01:29:24;;;;;;;77.38;34.10;;;;;;;;;;5072878;28;20104;-61
2023/04/30 01:31:50;;;;;;;83.20;34.03;;;;;;;;;;5071595;28;20032;-60
2023/04/30 01:34:16;;;;;;;86.18;36.30;;;;;;;;;;5072686;28;20036;-61
2023/04/30 01:36:50;;;;;;;81.35;34.55;;;;;;;;;;5072973;28;20028;-61
2023/04/30 01:39:29;;;;;;;75.53;33.90;;;;;;;;;;5072685;28;20078;-60
2023/04/30 01:41:58;;;;;;;73.68;33.22;;;;;;;;;;5072731;28;20060;-60
2023/04/30 01:44:24;;;;;;;78.22;33.97;;;;;;;;;;5072438;28;20112;-60
2023/04/30 01:47:00;;;;;;;76.65;36.50;;;;;;;;;;5072501;28;20036;-60
2023/04/30 01:49:32;;;;;;;69.82;32.63;;;;;;;;;;5072669;28;20025;-61
2023/04/30 01:52:24;;;;;;;69.10;34.45;;;;;;;;;;5072506;28;20101;-60
2023/04/30 01:55:00;;;;;;;72.05;33.05;;;;;;;;;;5071274;28;20033;-60
2023/04/30 01:57:36;;;;;;;78.43;33.90;;;;;;;;;;5072418;28;20543;-60
2023/04/30 02:00:03;;;;;;;73.63;32.83;;;;;;;;;;5072138;28;20039;-61
2023/04/30 02:02:29;;;;;;;72.18;32.42;;;;;;;;;;5071383;28;20499;-60
2023/04/30 02:04:55;;;;;;;70.82;31.13;;;;;;;;;;5072277;28;20107;-60
2023/04/30 02:07:41;;;;;;;70.93;32.75;;;;;;;;;;5072247;28;20120;-60
2023/04/30 02:10:07;;;;;;;70.40;32.17;;;;;;;;;;5072052;28;20480;-60
2023/04/30 02:12:34;;;;;;;70.90;30.65;;;;;;;;;;5072121;28;20025;-60
2023/04/30 02:15:00;;;;;;;73.30;32.03;;;;;;;;;;5071882;28;20024;-61
2023/04/30 02:17:26;;;;;;;76.28;31.73;;;;;;;;;;5072029;28;20027;-60
2023/04/30 02:19:52;;;;;;;73.43;34.10;;;;;;;;;;5071737;28;20032;-59
2023/04/30 02:22:18;;;;;;;76.95;33.92;;;;;;;;;;5072185;28;20024;-60
2023/04/30 02:24:44;;;;;;;81.25;34.70;;;;;;;;;;5072094;28;20522;-61
2023/04/30 02:27:10;;;;;;;80.43;34.00;;;;;;;;;;5071874;28;20178;-60
2023/04/30 02:29:36;;;;;;;77.13;33.13;;;;;;;;;;5071468;28;20582;-59
2023/04/30 02:32:02;;;;;;;77.68;34.15;;;;;;;;;;5071617;28;20194;-61
2023/04/30 02:34:28;;;;;;;83.07;33.45;;;;;;;;;;5071707;28;20190;-60
2023/04/30 02:36:54;;;;;;;75.38;32.42;;;;;;;;;;5071667;28;20040;-60
2023/04/30 02:39:20;;;;;;;75.68;32.25;;;;;;;;;;5071487;28;20098;-60
2023/04/30 02:41:46;;;;;;;75.97;32.55;;;;;;;;;;5071576;28;20085;-60
2023/04/30 02:44:12;;;;;;;83.50;33.78;;;;;;;;;;5071675;28;20063;-60
2023/04/30 02:46:38;;;;;;;73.35;32.40;;;;;;;;;;5071723;28;20235;-60
2023/04/30 02:49:05;;;;;;;76.55;33.00;;;;;;;;;;5071600;28;20024;-59
2023/04/30 02:51:31;;;;;;;72.13;32.78;;;;;;;;;;5071329;28;20099;-60
2023/04/30 02:53:57;;;;;;;69.22;31.80;;;;;;;;;;5071346;28;20028;-60
2023/04/30 02:56:23;;;;;;;73.75;33.13;;;;;;;;;;5071407;28;20017;-61
2023/04/30 02:58:49;;;;;;;73.10;31.80;;;;;;;;;;5071360;28;20125;-60
2023/04/30 03:01:15;;;;;;;74.40;33.88;;;;;;;;;;5071251;28;20070;-61
2023/04/30 03:03:41;;;;;;;70.72;33.47;;;;;;;;;;5071218;28;20047;-61
2023/04/30 03:06:08;;;;;;;73.47;33.88;;;;;;;;;;5071302;28;20017;-60
2023/04/30 03:08:34;;;;;;;74.40;32.60;;;;;;;;;;5070967;28;20100;-59
2023/04/30 03:11:00;;;;;;;78.70;32.92;;;;;;;;;;5071124;28;20032;-59
2023/04/30 03:13:26;;;;;;;71.75;32.00;;;;;;;;;;5070993;28;20111;-59
2023/04/30 03:16:03;;;;;;;69.13;31.23;;;;;;;;;;5071150;28;20024;-60
2023/04/30 03:18:30;;;;;;;71.05;33.55;;;;;;;;;;5070969;28;20028;-61
2023/04/30 03:20:56;;;;;;;72.43;31.83;;;;;;;;;;5071004;28;20473;-60
2023/04/30 03:23:22;;;;;;;64.30;31.45;;;;;;;;;;5070875;28;20032;-61
2023/04/30 03:25:49;;;;;;;74.40;31.85;;;;;;;;;;5071075;28;20024;-60
2023/04/30 03:28:15;;;;;;;64.22;31.85;;;;;;;;;;5070738;28;20055;-62
2023/04/30 03:30:41;;;;;;;68.95;31.00;;;;;;;;;;5071113;28;20025;-59
2023/04/30 03:33:07;;;;;;;75.95;30.05;;;;;;;;;;5070969;28;20028;-60
2023/04/30 03:35:34;;;;;;;66.95;31.67;;;;;;;;;;5071075;28;20023;-60
2023/04/30 03:38:00;;;;;;;68.03;29.35;;;;;;;;;;5070963;28;20478;-60
2023/04/30 03:40:27;;;;;;;67.10;30.13;;;;;;;;;;5070803;28;20037;-61
2023/04/30 03:42:53;;;;;;;71.22;30.02;;;;;;;;;;5070933;28;20032;-59
2023/04/30 03:45:19;;;;;;;66.20;29.83;;;;;;;;;;5070942;28;20020;-60
2023/04/30 03:47:45;;;;;;;73.10;31.42;;;;;;;;;;5071002;28;20032;-60
2023/04/30 03:50:11;;;;;;;72.32;32.08;;;;;;;;;;5070878;28;20020;-60
2023/04/30 03:52:37;;;;;;;67.30;31.38;;;;;;;;;;5070768;28;20028;-60
2023/04/30 03:55:04;;;;;;;66.20;30.23;;;;;;;;;;5071013;28;20086;-61
2023/04/30 03:57:30;;;;;;;69.82;31.30;;;;;;;;;;5070843;28;20028;-61
2023/04/30 03:59:56;;;;;;;67.65;30.85;;;;;;;;;;5070671;28;20431;-60
2023/04/30 04:02:22;;;;;;;73.65;29.98;;;;;;;;;;5071046;28;20021;-60
2023/04/30 04:04:49;;;;;;;71.72;30.60;;;;;;;;;;5070627;28;20060;-60
2023/04/30 04:07:15;;;;;;;64.55;30.83;;;;;;;;;;5070551;28;20048;-59
2023/04/30 04:09:41;;;;;;;67.95;30.00;;;;;;;;;;5070894;28;20021;-63
2023/04/30 04:12:07;;;;;;;66.15;29.73;;;;;;;;;;5070566;28;20074;-60
2023/04/30 04:14:33;;;;;;;63.75;28.38;;;;;;;;;;5070639;28;20021;-61
2023/04/30 04:16:59;;;;;;;65.85;29.20;;;;;;;;;;5070566;28;20035;-61
2023/04/30 04:19:28;;;;;;;68.82;29.23;;;;;;;;;;5070439;28;20115;-60
2023/04/30 04:21:54;;;;;;;63.03;27.98;;;;;;;;;;5070473;28;20499;-60
2023/04/30 04:24:20;;;;;;;67.40;28.40;;;;;;;;;;5070727;28;20028;-61
2023/04/30 04:26:46;;;;;;;66.47;28.67;;;;;;;;;;5072944;28;20108;-60
2023/04/30 04:29:12;;;;;;;70.03;28.38;;;;;;;;;;5074026;28;20072;-62
2023/04/30 04:31:41;;;;;;;56.05;27.73;;;;;;;;;;5074164;28;20507;-61
2023/04/30 04:34:07;;;;;;;59.42;28.48;;;;;;;;;;5073878;28;20025;-61
2023/04/30 04:36:33;;;;;;;72.55;29.30;;;;;;;;;;5073957;28;20021;-61
2023/04/30 04:39:02;;;;;;;66.68;29.73;;;;;;;;;;5073741;28;20366;-60
2023/04/30 04:41:32;;;;;;;64.25;27.88;;;;;;;;;;5074011;28;20055;-60
2023/04/30 04:43:58;;;;;;;62.67;28.58;;;;;;;;;;5073868;28;20404;-61
2023/04/30 04:46:25;;;;;;;60.50;28.23;;;;;;;;;;5073791;28;20037;-61
2023/04/30 04:48:52;;;;;;;60.78;28.00;;;;;;;;;;5073797;28;20381;-61
2023/04/30 04:51:18;;;;;;;63.50;28.77;;;;;;;;;;5073549;28;20361;-60
2023/04/30 04:53:44;;;;;;;62.42;28.25;;;;;;;;;;5073540;28;20070;-60
2023/04/30 04:56:10;;;;;;;58.63;26.70;;;;;;;;;;5073698;28;20103;-61
2023/04/30 04:58:36;;;;;;;58.47;25.92;;;;;;;;;;5073605;28;20074;-60
2023/04/30 05:01:03;;;;;;;58.78;24.17;;;;;;;;;;5073735;28;20434;-59
2023/04/30 05:03:30;;;;;;;59.17;25.45;;;;;;;;;;5073249;28;20052;-61
2023/04/30 05:05:56;;;;;;;59.08;25.10;;;;;;;;;;5073637;28;20468;-59
2023/04/30 05:08:22;;;;;;;66.25;26.15;;;;;;;;;;5073388;28;20033;-60
2023/04/30 05:10:48;;;;;;;62.92;26.77;;;;;;;;;;5073396;28;20017;-61
2023/04/30 05:13:14;;;;;;;63.45;27.38;;;;;;;;;;5073511;28;20480;-58
2023/04/30 05:15:40;;;;;;;66.78;26.70;;;;;;;;;;5070582;28;20020;-60
2023/04/30 05:18:06;;;;;;;59.05;26.85;;;;;;;;;;5068675;28;20602;-60
2023/04/30 05:20:32;;;;;;;69.47;28.58;;;;;;;;;;5068058;28;20046;-60
2023/04/30 05:22:59;;;;;;;79.63;29.15;;;;;;;;;;5070153;28;20066;-60
2023/04/30 05:25:25;;;;;;;61.85;27.88;;;;;;;;;;5069113;28;20025;-61
2023/04/30 05:27:51;;;;;;;72.10;29.30;;;;;;;;;;5069486;28;20028;-59
2023/04/30 05:30:18;;;;;;;66.35;27.77;;;;;;;;;;5073008;28;20017;-60
2023/04/30 05:32:49;;;;;;;72.35;29.48;;;;;;;;;;5071120;28;20055;-60
2023/04/30 05:35:15;;;;;;;66.32;29.27;;;;;;;;;;5072912;28;20029;-60
2023/04/30 05:37:41;;;;;;;83.68;30.90;;;;;;;;;;5072816;28;20306;-60
2023/04/30 05:40:08;;;;;;;69.85;31.77;;;;;;;;;;5072600;28;20532;-59
2023/04/30 05:42:35;;;;;;;80.60;32.05;;;;;;;;;;5072279;28;20024;-60
2023/04/30 05:45:02;;;;;;;58.92;26.23;;;;;;;;;;5072658;28;20031;-60
2023/04/30 05:47:28;;;;;;;52.65;25.73;;;;;;;;;;5072466;28;20031;-59
2023/04/30 05:49:54;;;;;;;51.55;23.35;;;;;;;;;;5072299;28;20093;-59
2023/04/30 05:52:20;;;;;;;52.05;23.65;;;;;;;;;;5072719;28;20368;-59
2023/04/30 05:54:47;;;;;;;51.80;23.02;;;;;;;;;;5072273;28;20021;-59
2023/04/30 05:57:13;;;;;;;43.22;21.80;;;;;;;;;;5069954;28;20496;-60
2023/04/30 05:59:39;;;;;;;52.58;23.65;;;;;;;;;;5072108;28;20035;-60
2023/04/30 06:02:05;;;;;;;50.28;24.17;;;;;;;;;;5072155;28;20029;-59
2023/04/30 06:04:31;;;;;;;51.55;23.38;;;;;;;;;;5072262;28;20117;-60
2023/04/30 06:06:57;;;;;;;53.40;23.25;;;;;;;;;;5071843;28;20025;-61
2023/04/30 06:09:23;;;;;;;51.13;25.10;;;;;;;;;;5072306;28;20495;-59
2023/04/30 06:11:50;;;;;;;48.78;23.20;;;;;;;;;;5070321;28;20025;-59
2023/04/30 06:14:17;;;;;;;57.60;26.42;;;;;;;;;;5070231;28;20028;-60
2023/04/30 06:16:47;;;;;;;53.35;24.98;;;;;;;;;;5072147;28;20102;-59
2023/04/30 06:19:13;;;;;;;66.53;30.00;;;;;;;;;;5071919;28;20036;-60
2023/04/30 06:21:39;;;;;;;74.13;34.20;;;;;;;;;;5071983;28;20508;-60
2023/04/30 06:24:05;;;;;;;81.15;36.17;;;;;;;;;;5070084;28;20036;-60
2023/04/30 06:26:32;;;;;;;80.47;35.25;;;;;;;;;;5071421;28;20017;-60
2023/04/30 06:28:58;;;;;;;63.53;29.65;;;;;;;;;;5070083;28;20048;-60
2023/04/30 06:31:25;;;;;;;53.30;24.75;;;;;;;;;;5071843;28;20090;-60
2023/04/30 06:33:51;;;;;;;45.67;24.00;;;;;;;;;;5071485;28;20402;-60
2023/04/30 06:36:18;;;;;;;42.90;23.05;;;;;;;;;;5071821;28;20025;-60
2023/04/30 06:38:45;;;;;;;44.05;22.02;;;;;;;;;;5070577;28;20039;-60
2023/04/30 06:41:11;;;;;;;44.22;22.83;;;;;;;;;;5071689;28;20013;-61
2023/04/30 06:43:37;;;;;;;46.42;24.88;;;;;;;;;;5071609;28;20024;-59
2023/04/30 06:46:05;;;;;;;44.45;22.70;;;;;;;;;;5070307;28;20078;-60
2023/04/30 06:48:31;;;;;;;43.88;22.92;;;;;;;;;;5067945;28;20444;-60
2023/04/30 06:50:58;;;;;;;45.50;24.63;;;;;;;;;;5071392;28;20020;-61
2023/04/30 06:53:24;;;;;;;47.45;24.83;;;;;;;;;;5069686;28;20024;-61
2023/04/30 06:55:51;;;;;;;51.20;25.77;;;;;;;;;;5071298;28;20016;-60
2023/04/30 06:58:17;;;;;;;44.65;24.95;;;;;;;;;;5070754;28;20469;-60
2023/04/30 07:00:43;;;;;;;47.63;25.70;;;;;;;;;;5069701;28;20045;-62
2023/04/30 07:03:09;;;;;;;46.90;25.02;;;;;;;;;;5070184;28;20542;-60
2023/04/30 07:05:35;;;;;;;49.30;26.88;;;;;;;;;;5070434;28;20072;-61
2023/04/30 07:08:02;;;;;;;48.20;25.75;;;;;;;;;;5070657;28;20024;-60
2023/04/30 07:10:28;;;;;;;47.28;25.58;;;;;;;;;;5071229;28;20028;-60
2023/04/30 07:12:55;;;;;;;49.97;26.60;;;;;;;;;;5070023;28;20208;-61
2023/04/30 07:15:21;;;;;;;47.40;26.23;;;;;;;;;;5067868;28;20500;-60
2023/04/30 07:17:47;;;;;;;47.22;26.35;;;;;;;;;;5062386;28;20071;-60
2023/04/30 07:20:13;;;;;;;53.95;28.67;;;;;;;;;;5069739;28;20048;-60
2023/04/30 07:22:40;;;;;;;47.67;25.85;;;;;;;;;;5069771;28;20115;-60
2023/04/30 07:25:06;;;;;;;46.28;26.73;;;;;;;;;;5069616;28;20426;-59
2023/04/30 07:27:32;;;;;;;52.63;27.33;;;;;;;;;;5069536;28;20028;-61
2023/04/30 07:29:58;;;;;;;46.83;26.90;;;;;;;;;;5070771;28;20059;-61
2023/04/30 07:32:26;;;;;;;50.47;26.73;;;;;;;;;;5071292;28;20103;-61
2023/04/30 07:34:52;;;;;;;51.13;26.58;;;;;;;;;;5069495;28;20033;-59
2023/04/30 07:37:18;;;;;;;48.85;27.02;;;;;;;;;;5070631;28;20483;-59
2023/04/30 07:39:44;;;;;;;47.90;26.38;;;;;;;;;;5068629;28;20040;-61
2023/04/30 07:42:10;;;;;;;51.13;26.08;;;;;;;;;;5070552;28;20376;-61
2023/04/30 07:44:37;;;;;;;47.30;25.48;;;;;;;;;;5070666;28;20021;-60
2023/04/30 07:47:03;;;;;;;49.25;26.63;;;;;;;;;;5068642;28;20028;-61
2023/04/30 07:49:29;;;;;;;47.95;24.70;;;;;;;;;;5070580;28;20024;-60
2023/04/30 07:51:55;;;;;;;49.70;25.90;;;;;;;;;;5069404;28;20036;-61
2023/04/30 07:54:21;;;;;;;46.60;27.33;;;;;;;;;;5069693;28;20032;-61
2023/04/30 07:56:47;;;;;;;45.45;25.10;;;;;;;;;;5070745;28;20071;-62
2023/04/30 07:59:13;;;;;;;44.25;24.85;;;;;;;;;;5068042;28;20439;-60
2023/04/30 08:01:40;;;;;;;42.08;26.00;;;;;;;;;;5069533;28;20020;-61
2023/04/30 08:04:06;;;;;;;46.10;27.58;;;;;;;;;;5074174;28;20025;-61
2023/04/30 08:06:32;;;;;;;41.40;25.25;;;;;;;;;;5089395;28;20078;-60
2023/04/30 08:08:58;;;;;;;44.50;26.75;;;;;;;;;;5074437;28;20078;-61
2023/04/30 08:11:24;;;;;;;44.10;25.65;;;;;;;;;;5070934;28;20059;-62
2023/04/30 08:13:50;;;;;;;47.90;26.45;;;;;;;;;;5074590;28;20017;-61
2023/04/30 08:16:16;;;;;;;42.88;26.33;;;;;;;;;;5074419;28;20020;-61
2023/04/30 08:18:43;;;;;;;43.63;25.77;;;;;;;;;;5073142;28;20056;-62
2023/04/30 08:21:10;;;;;;;45.58;27.60;;;;;;;;;;5074076;28;20036;-61
2023/04/30 08:23:36;;;;;;;46.58;26.17;;;;;;;;;;5073467;28;20032;-61
2023/04/30 08:26:03;;;;;;;39.78;24.02;;;;;;;;;;5074230;28;20029;-62
2023/04/30 08:28:29;;;;;;;42.70;24.70;;;;;;;;;;5074087;28;20052;-61
2023/04/30 08:30:57;;;;;;;37.00;24.90;;;;;;;;;;5072182;28;20134;-61
2023/04/30 08:33:23;;;;;;;43.78;24.00;;;;;;;;;;5072708;28;20606;-62
2023/04/30 08:35:50;;;;;;;37.47;25.08;;;;;;;;;;5070895;28;20107;-62
2023/04/30 08:38:17;;;;;;;39.22;24.50;;;;;;;;;;5072080;28;20503;-62
2023/04/30 08:40:48;;;;;;;38.25;24.00;;;;;;;;;;5072193;28;20024;-62
2023/04/30 08:43:15;;;;;;;37.50;23.80;;;;;;;;;;5072119;28;20020;-63
2023/04/30 08:45:41;;;;;;;42.30;24.55;;;;;;;;;;5071351;28;20025;-62
2023/04/30 08:48:15;;;;;;;35.83;23.63;;;;;;;;;;5073827;28;20017;-62
2023/04/30 08:50:41;;;;;;;39.97;25.25;;;;;;;;;;5071689;28;20037;-62
2023/04/30 08:53:10;;;;;;;31.70;21.73;;;;;;;;;;5071256;28;20120;-62
2023/04/30 08:55:38;;;;;;;38.40;22.67;;;;;;;;;;5072879;28;20024;-62
2023/04/30 08:58:04;;;;;;;35.60;22.95;;;;;;;;;;5073412;28;20025;-63
2023/04/30 09:00:32;;;;;;;37.85;21.83;;;;;;;;;;5071912;28;20033;-61
2023/04/30 09:03:00;;;;;;;31.30;21.52;;;;;;;;;;5072739;28;20086;-61
2023/04/30 09:05:26;;;;;;;38.85;22.00;;;;;;;;;;5072141;28;20443;-61
2023/04/30 09:07:52;;;;;;;38.97;22.63;;;;;;;;;;5071918;28;20024;-61
2023/04/30 09:10:21;;;;;;;33.92;21.88;;;;;;;;;;5072527;28;20048;-61
2023/04/30 09:13:07;;;;;;;32.35;20.95;;;;;;;;;;5071024;28;20082;-61
2023/04/30 09:15:34;;;;;;;36.80;21.65;;;;;;;;;;5053122;28;20028;-62
2023/04/30 09:18:13;;;;;;;36.92;22.50;;;;;;;;;;5053345;28;20021;-61
2023/04/30 09:20:53;;;;;;;34.58;21.33;;;;;;;;;;5053097;28;20085;-62
2023/04/30 09:23:19;;;;;;;37.92;23.23;;;;;;;;;;5053007;28;20074;-61
2023/04/30 09:25:45;;;;;;;40.08;23.60;;;;;;;;;;5053254;28;20477;-61
2023/04/30 09:28:12;;;;;;;35.72;23.00;;;;;;;;;;5064510;28;20128;-62
2023/04/30 09:30:41;;;;;;;39.20;23.50;;;;;;;;;;5072132;28;20036;-60
2023/04/30 09:33:08;;;;;;;42.63;24.65;;;;;;;;;;5072033;28;20025;-61
2023/04/30 09:35:35;;;;;;;42.28;24.85;;;;;;;;;;5073068;28;20044;-61
2023/04/30 09:38:02;;;;;;;42.38;24.27;;;;;;;;;;5072869;28;20039;-61
2023/04/30 09:40:39;;;;;;;47.10;25.30;;;;;;;;;;5070928;28;20247;-61
2023/04/30 09:43:05;;;;;;;40.38;24.85;;;;;;;;;;5071762;28;20025;-61
2023/04/30 09:45:41;;;;;;;42.97;24.73;;;;;;;;;;5071976;28;20558;-61
2023/04/30 09:48:09;;;;;;;38.13;23.67;;;;;;;;;;5072824;28;20059;-61
2023/04/30 09:50:39;;;;;;;40.22;23.42;;;;;;;;;;5070022;28;20037;-60
2023/04/30 09:53:07;;;;;;;43.10;24.65;;;;;;;;;;5069003;28;20116;-61
2023/04/30 09:55:34;;;;;;;38.40;23.27;;;;;;;;;;5072291;28;20107;-63
2023/04/30 09:58:00;;;;;;;35.80;22.77;;;;;;;;;;5072578;28;20025;-62
2023/04/30 10:00:27;;;;;;;35.25;21.90;;;;;;;;;;5069037;28;20499;-62
2023/04/30 10:02:53;;;;;;;32.17;21.27;;;;;;;;;;5072239;28;20031;-63
2023/04/30 10:05:19;;;;;;;37.67;22.88;;;;;;;;;;5070573;28;20480;-62
2023/04/30 10:07:46;;;;;;;32.85;21.42;;;;;;;;;;5071332;28;20147;-62
2023/04/30 10:10:12;;;;;;;32.47;20.50;;;;;;;;;;5071649;28;20118;-61
2023/04/30 10:12:51;;;;;;;37.90;22.35;;;;;;;;;;5071232;28;20521;-62
2023/04/30 10:15:20;;;;;;;37.35;22.40;;;;;;;;;;5069545;28;20037;-64
2023/04/30 10:17:49;;;;;;;34.63;21.80;;;;;;;;;;5071355;28;20017;-61
2023/04/30 10:20:17;;;;;;;35.05;23.75;;;;;;;;;;5070244;28;20401;-62
2023/04/30 10:22:45;;;;;;;32.30;20.75;;;;;;;;;;5071888;28;20020;-61
2023/04/30 10:25:12;;;;;;;32.92;21.08;;;;;;;;;;5070927;28;20021;-61
2023/04/30 10:27:38;;;;;;;30.20;19.67;;;;;;;;;;5071058;28;20131;-62
2023/04/30 10:30:06;;;;;;;32.38;19.15;;;;;;;;;;5070587;28;20084;-61
2023/04/30 10:32:38;;;;;;;28.05;19.00;;;;;;;;;;5052783;28;20055;-61
2023/04/30 10:35:16;;;;;;;27.60;18.40;;;;;;;;;;5052991;28;20051;-62
2023/04/30 10:37:53;;;;;;;26.50;17.25;;;;;;;;;;5069773;28;20099;-62
2023/04/30 10:40:19;;;;;;;26.58;17.50;;;;;;;;;;5069787;28;20038;-61
2023/04/30 10:42:49;;;;;;;22.65;15.75;;;;;;;;;;5050477;28;20029;-62
2023/04/30 10:45:15;;;;;;;23.67;15.95;;;;;;;;;;5051427;28;20033;-62
2023/04/30 10:47:44;;;;;;;25.70;16.50;;;;;;;;;;5064997;28;20036;-61
2023/04/30 10:50:10;;;;;;;25.63;17.67;;;;;;;;;;5071463;28;20021;-62
2023/04/30 10:52:37;;;;;;;21.58;16.05;;;;;;;;;;5070215;28;20021;-63
2023/04/30 10:55:04;;;;;;;24.42;15.90;;;;;;;;;;5071229;28;20028;-62
2023/04/30 10:57:30;;;;;;;22.05;15.00;;;;;;;;;;5070508;28;20017;-62
2023/04/30 11:00:13;;;;;;;25.58;17.50;;;;;;;;;;5070952;28;20041;-63
2023/04/30 11:02:42;;;;;;;26.73;16.40;;;;;;;;;;5070668;28;20020;-62
2023/04/30 11:05:10;;;;;;;20.52;15.95;;;;;;;;;;5071351;28;20031;-63
2023/04/30 11:07:36;;;;;;;22.50;14.55;;;;;;;;;;5070848;28;20025;-63
2023/04/30 11:10:03;;;;;;;26.73;16.70;;;;;;;;;;5069499;28;20078;-62
2023/04/30 11:12:29;;;;;;;24.27;16.58;;;;;;;;;;5069131;28;20052;-62
2023/04/30 11:15:00;;;;;;;23.27;15.90;;;;;;;;;;5071028;28;20416;-63
2023/04/30 11:17:27;;;;;;;23.90;13.90;;;;;;;;;;5070241;28;20021;-61
2023/04/30 11:19:53;;;;;;;23.20;15.68;;;;;;;;;;5070854;28;20097;-61
2023/04/30 11:22:19;;;;;;;25.00;15.90;;;;;;;;;;5071322;28;20020;-59
2023/04/30 11:24:54;;;;;;;22.88;15.63;;;;;;;;;;5070122;28;20020;-61
2023/04/30 11:27:21;;;;;;;20.95;14.45;;;;;;;;;;5070312;28;20126;-61
2023/04/30 11:29:47;;;;;;;21.45;14.63;;;;;;;;;;5070891;28;20528;-60
2023/04/30 11:32:13;;;;;;;24.88;15.20;;;;;;;;;;5070228;28;20025;-61
2023/04/30 11:34:40;;;;;;;20.05;13.85;;;;;;;;;;5070775;28;20085;-61
2023/04/30 11:37:06;;;;;;;20.27;14.25;;;;;;;;;;5059192;28;20119;-62
2023/04/30 11:39:35;;;;;;;20.83;14.23;;;;;;;;;;5073452;28;20488;-62
2023/04/30 11:42:04;;;;;;;20.38;13.02;;;;;;;;;;5072892;28;20081;-62
2023/04/30 11:44:30;;;;;;;18.80;13.15;;;;;;;;;;5073955;28;20028;-63
2023/04/30 11:46:56;;;;;;;19.80;13.85;;;;;;;;;;5074929;28;20020;-62
2023/04/30 11:49:22;;;;;;;20.02;13.23;;;;;;;;;;5070684;28;20428;-62
2023/04/30 11:51:49;;;;;;;20.90;12.93;;;;;;;;;;5054750;28;20029;-59
2023/04/30 11:54:16;;;;;;;20.73;13.38;;;;;;;;;;5054902;28;20017;-61
2023/04/30 11:56:49;;;;;;;20.17;13.57;;;;;;;;;;5054833;28;20473;-61
2023/04/30 11:59:16;;;;;;;19.13;13.23;;;;;;;;;;5067462;28;20041;-60
2023/04/30 12:01:42;;;;;;;17.13;12.77;;;;;;;;;;5074639;28;20074;-61
2023/04/30 12:04:09;;;;;;;19.65;13.20;;;;;;;;;;5074622;28;20035;-61
2023/04/30 12:06:35;;;;;;;22.33;12.93;;;;;;;;;;5074448;28;20025;-63
2023/04/30 12:09:10;;;;;;;17.30;11.73;;;;;;;;;;5073035;28;20432;-61
2023/04/30 12:11:37;;;;;;;16.83;11.93;;;;;;;;;;5074466;28;20075;-61
2023/04/30 12:14:06;;;;;;;17.60;12.65;;;;;;;;;;5073023;28;20031;-62
2023/04/30 12:16:41;;;;;;;19.08;12.52;;;;;;;;;;5074292;28;20377;-63
2023/04/30 12:19:08;;;;;;;19.33;12.32;;;;;;;;;;5074142;28;20090;-63
2023/04/30 12:21:35;;;;;;;19.35;12.15;;;;;;;;;;5074370;28;20538;-61
2023/04/30 12:24:01;;;;;;;16.88;11.43;;;;;;;;;;5068374;28;20078;-60
2023/04/30 12:26:40;;;;;;;16.15;11.73;;;;;;;;;;5071368;28;20052;-61
2023/04/30 12:29:10;;;;;;;15.95;11.25;;;;;;;;;;5071292;28;20059;-60
2023/04/30 12:31:40;;;;;;;16.05;12.02;;;;;;;;;;5072825;28;20040;-60
2023/04/30 12:34:07;;;;;;;16.00;11.55;;;;;;;;;;5073166;28;20039;-62
2023/04/30 12:36:35;;;;;;;16.10;11.57;;;;;;;;;;5074101;28;20047;-61
2023/04/30 12:39:17;;;;;;;15.48;11.15;;;;;;;;;;5073939;28;20039;-61
2023/04/30 12:41:44;;;;;;;20.23;13.07;;;;;;;;;;5072001;28;20044;-61
2023/04/30 12:44:17;;;;;;;16.75;11.95;;;;;;;;;;5070783;28;20404;-62
2023/04/30 12:46:45;;;;;;;16.38;12.48;;;;;;;;;;5071835;28;20077;-61
2023/04/30 12:49:11;;;;;;;19.05;12.30;;;;;;;;;;5070017;28;20024;-61
2023/04/30 12:51:40;;;;;;;18.08;12.52;;;;;;;;;;5071405;28;20056;-62
2023/04/30 12:54:06;;;;;;;19.65;13.73;;;;;;;;;;5073566;28;20093;-62
2023/04/30 12:56:32;;;;;;;19.75;14.00;;;;;;;;;;5070979;28;20021;-62
2023/04/30 12:58:58;;;;;;;20.92;14.15;;;;;;;;;;5072128;28;20038;-62
2023/04/30 13:01:25;;;;;;;22.77;15.13;;;;;;;;;;5071875;28;20027;-61
2023/04/30 13:03:52;;;;;;;22.58;15.27;;;;;;;;;;5070571;28;20028;-62
2023/04/30 13:06:18;;;;;;;21.38;15.35;;;;;;;;;;5071310;28;20027;-62
2023/04/30 13:08:44;;;;;;;21.25;14.18;;;;;;;;;;5071573;28;20021;-63
2023/04/30 13:11:10;;;;;;;26.15;16.90;;;;;;;;;;5071802;28;20024;-62
2023/04/30 13:13:36;;;;;;;22.58;14.82;;;;;;;;;;5071215;28;20111;-62
2023/04/30 13:16:05;;;;;;;20.23;14.40;;;;;;;;;;5073089;28;20059;-61
2023/04/30 13:18:32;;;;;;;19.92;14.43;;;;;;;;;;5073342;28;20046;-61
2023/04/30 13:20:58;;;;;;;22.65;14.18;;;;;;;;;;5071944;28;20032;-61
2023/04/30 13:23:24;;;;;;;18.30;12.80;;;;;;;;;;5073137;28;20020;-62
2023/04/30 13:25:50;;;;;;;18.77;14.18;;;;;;;;;;5072977;28;20028;-62
2023/04/30 13:28:16;;;;;;;18.10;13.48;;;;;;;;;;5070696;28;20040;-64
2023/04/30 13:30:42;;;;;;;23.15;14.60;;;;;;;;;;5072372;28;20028;-64
2023/04/30 13:33:08;;;;;;;18.40;13.48;;;;;;;;;;5072304;28;20054;-64
2023/04/30 13:35:34;;;;;;;20.25;15.13;;;;;;;;;;5072980;28;20389;-63
2023/04/30 13:38:01;;;;;;;20.65;14.43;;;;;;;;;;5072728;28;20419;-64
2023/04/30 13:40:27;;;;;;;21.35;14.80;;;;;;;;;;5072451;28;20068;-62
2023/04/30 13:42:53;;;;;;;18.45;14.05;;;;;;;;;;5072470;28;20025;-62
2023/04/30 13:45:19;;;;;;;19.27;14.02;;;;;;;;;;5071488;28;20028;-60
2023/04/30 13:47:46;;;;;;;19.88;14.48;;;;;;;;;;5072494;28;20020;-63
2023/04/30 13:50:12;;;;;;;23.38;14.80;;;;;;;;;;5072473;28;20032;-64
2023/04/30 13:52:38;;;;;;;19.33;14.32;;;;;;;;;;5071777;28;20078;-64
2023/04/30 13:55:04;;;;;;;17.02;13.70;;;;;;;;;;5072377;28;20621;-64
2023/04/30 13:57:32;;;;;;;19.25;13.85;;;;;;;;;;5071755;28;20027;-64
2023/04/30 13:59:58;;;;;;;23.15;14.65;;;;;;;;;;5070918;28;20036;-63
2023/04/30 14:02:26;;;;;;;20.40;15.10;;;;;;;;;;5070353;28;20036;-63
2023/04/30 14:04:52;;;;;;;23.42;14.73;;;;;;;;;;5071670;28;20034;-62
2023/04/30 14:07:18;;;;;;;21.15;14.13;;;;;;;;;;5069882;28;20421;-63
2023/04/30 14:09:44;;;;;;;19.38;14.63;;;;;;;;;;5071891;28;20074;-63
2023/04/30 14:12:10;;;;;;;17.40;13.80;;;;;;;;;;5071795;28;20012;-63
2023/04/30 14:14:36;;;;;;;20.13;13.57;;;;;;;;;;5064922;28;20032;-63
2023/04/30 14:17:03;;;;;;;18.40;13.02;;;;;;;;;;5070454;28;20389;-61
2023/04/30 14:19:29;;;;;;;19.15;13.18;;;;;;;;;;5070832;28;20048;-63